createdAt,value
2023-03-02T00:00:48.449Z,26.45
2023-03-02T00:03:18.451Z,24.17
2023-03-02T00:05:48.082Z,21.30
2023-03-02T00:08:19.360Z,19.15
2023-03-02T00:10:47.839Z,25.80
2023-03-02T00:13:17.171Z,19.67
2023-03-02T00:15:45.376Z,31.80
2023-03-02T00:18:13.990Z,24.92
2023-03-02T00:20:42.146Z,28.55
2023-03-02T00:23:10.401Z,29.23
2023-03-02T00:25:41.463Z,25.23
2023-03-02T00:28:10.132Z,20.25
2023-03-02T00:30:38.933Z,17.88
2023-03-02T00:33:07.444Z,20.80
2023-03-02T00:35:39.343Z,20.08
2023-03-02T00:38:08.456Z,20.65
2023-03-02T00:40:37.121Z,24.50
2023-03-02T00:43:06.838Z,18.02
2023-03-02T00:45:35.296Z,19.55
2023-03-02T00:48:03.324Z,18.42
2023-03-02T00:50:31.783Z,16.98
2023-03-02T00:53:00.501Z,18.95
2023-03-02T00:55:29.475Z,18.23
2023-03-02T00:57:58.111Z,21.42
2023-03-02T01:00:29.617Z,20.92
2023-03-02T01:02:57.963Z,18.50
2023-03-02T01:05:26.469Z,28.55
2023-03-02T01:07:54.670Z,22.80
2023-03-02T01:10:23.034Z,25.10
2023-03-02T01:12:51.173Z,24.25
2023-03-02T01:15:19.818Z,30.02
2023-03-02T01:17:49.450Z,28.52
2023-03-02T01:20:18.746Z,23.63
2023-03-02T01:22:58.876Z,20.05
2023-03-02T01:25:39.038Z,25.90
2023-03-02T01:28:15.604Z,21.27
2023-03-02T01:30:46.928Z,19.15
2023-03-02T01:33:16.947Z,27.63
2023-03-02T01:35:46.253Z,18.08
2023-03-02T01:38:14.851Z,22.60
2023-03-02T01:40:43.890Z,22.02
2023-03-02T01:43:16.031Z,20.17
2023-03-02T01:45:53.839Z,18.92
2023-03-02T01:48:28.877Z,18.10
2023-03-02T01:50:57.656Z,18.27
2023-03-02T01:53:27.509Z,20.52
2023-03-02T01:55:57.656Z,22.35
2023-03-02T01:58:26.824Z,25.73
2023-03-02T02:00:58.022Z,21.17
2023-03-02T02:03:29.800Z,25.55
2023-03-02T02:06:04.991Z,26.23
2023-03-02T02:08:33.673Z,26.45
2023-03-02T02:11:02.282Z,24.20
2023-03-02T02:13:31.034Z,22.75
2023-03-02T02:15:59.148Z,20.15
2023-03-02T02:18:29.054Z,26.90
2023-03-02T02:20:57.532Z,23.55
2023-03-02T02:23:30.634Z,22.20
2023-03-02T02:26:05.833Z,19.92
2023-03-02T02:28:37.267Z,22.67
2023-03-02T02:31:10.406Z,21.65
2023-03-02T02:33:40.637Z,32.83
2023-03-02T02:36:13.408Z,24.73
2023-03-02T02:38:44.570Z,24.25
2023-03-02T02:41:19.691Z,30.80
2023-03-02T02:43:48.279Z,25.08
2023-03-02T02:46:16.846Z,30.60
2023-03-02T02:48:45.466Z,28.13
2023-03-02T02:51:19.099Z,24.52
2023-03-02T02:53:51.311Z,21.85
2023-03-02T02:56:21.129Z,18.67
2023-03-02T02:58:52.847Z,25.48
2023-03-02T03:01:25.727Z,22.58
2023-03-02T03:03:56.090Z,27.17
2023-03-02T03:06:29.775Z,23.58
2023-03-02T03:09:01.228Z,22.92
2023-03-02T03:11:32.974Z,28.05
2023-03-02T03:14:10.201Z,27.52
2023-03-02T03:16:41.949Z,27.75
2023-03-02T03:19:14.945Z,30.75
2023-03-02T03:21:45.465Z,29.60
2023-03-02T03:24:13.607Z,29.90
2023-03-02T03:26:43.557Z,31.75
2023-03-02T03:29:12.361Z,36.42
2023-03-02T03:31:41.090Z,33.40
2023-03-02T03:34:09.827Z,37.28
2023-03-02T03:36:38.953Z,42.97
2023-03-02T03:39:07.403Z,31.15
2023-03-02T03:41:35.446Z,36.95
2023-03-02T03:44:05.838Z,33.92
2023-03-02T03:46:34.908Z,38.33
2023-03-02T03:49:03.624Z,32.92
2023-03-02T03:51:35.737Z,32.08
2023-03-02T03:54:05.318Z,31.05
2023-03-02T03:56:36.435Z,27.13
2023-03-02T03:59:15.475Z,35.90
2023-03-02T04:01:47.441Z,31.33
2023-03-02T04:06:45.347Z,31.00
2023-03-02T04:09:15.577Z,28.73
2023-03-02T04:11:45.432Z,32.75
2023-03-02T04:14:16.278Z,30.48
2023-03-02T04:16:45.572Z,31.98
2023-03-02T04:19:14.786Z,33.40
2023-03-02T04:21:46.417Z,35.60
2023-03-02T04:24:15.254Z,37.15
2023-03-02T04:26:51.780Z,36.05
2023-03-02T04:29:25.084Z,41.83
2023-03-02T04:32:07.448Z,43.72
2023-03-02T04:34:37.709Z,48.40
2023-03-02T04:37:06.865Z,39.35
2023-03-02T04:39:35.139Z,46.13
2023-03-02T04:42:03.667Z,50.17
2023-03-02T04:44:36.403Z,59.20
2023-03-02T04:47:04.903Z,71.00
2023-03-02T04:49:34.381Z,61.50
2023-03-02T04:52:03.235Z,47.95
2023-03-02T04:54:32.041Z,50.97
2023-03-02T04:57:02.679Z,54.72
2023-03-02T04:59:31.160Z,51.08
2023-03-02T05:02:02.140Z,51.92
2023-03-02T05:04:32.029Z,54.10
2023-03-02T05:07:00.525Z,49.95
2023-03-02T05:09:30.751Z,52.95
2023-03-02T05:12:01.204Z,60.05
2023-03-02T05:14:29.732Z,49.55
2023-03-02T05:16:58.293Z,51.38
2023-03-02T05:19:28.201Z,46.85
2023-03-02T05:21:57.187Z,49.55
2023-03-02T05:24:25.366Z,48.45
2023-03-02T05:26:53.727Z,50.70
2023-03-02T05:29:23.426Z,48.42
2023-03-02T05:31:56.281Z,53.47
2023-03-02T05:34:24.751Z,50.58
2023-03-02T05:36:54.263Z,57.83
2023-03-02T05:39:22.524Z,53.90
2023-03-02T05:41:50.628Z,58.70
2023-03-02T05:44:19.741Z,60.10
2023-03-02T05:46:49.679Z,78.70
2023-03-02T05:49:17.806Z,64.32
2023-03-02T05:51:46.082Z,71.10
2023-03-02T05:54:15.961Z,73.00
2023-03-02T05:56:49.977Z,76.70
2023-03-02T05:59:18.903Z,79.38
2023-03-02T06:01:48.013Z,80.68
2023-03-02T06:04:18.314Z,78.57
2023-03-02T06:06:46.861Z,81.32
2023-03-02T06:09:16.642Z,103.05
2023-03-02T06:11:44.725Z,91.43
2023-03-02T06:14:12.932Z,93.55
2023-03-02T06:16:41.533Z,92.18
2023-03-02T06:19:10.348Z,96.35
2023-03-02T06:21:38.667Z,97.38
2023-03-02T06:24:08.739Z,92.55
2023-03-02T06:26:38.767Z,85.60
2023-03-02T06:29:07.767Z,81.75
2023-03-02T06:31:37.186Z,87.75
2023-03-02T06:34:06.231Z,86.97
2023-03-02T06:36:35.140Z,86.78
2023-03-02T06:39:03.938Z,74.90
2023-03-02T06:41:33.995Z,69.32
2023-03-02T06:44:05.597Z,68.03
2023-03-02T06:46:35.153Z,71.15
2023-03-02T06:49:07.561Z,69.47
2023-03-02T06:51:36.329Z,68.40
2023-03-02T06:54:04.985Z,62.25
2023-03-02T06:56:33.402Z,56.03
2023-03-02T06:59:04.100Z,62.15
2023-03-02T07:01:36.249Z,60.25
2023-03-02T07:04:04.764Z,61.88
2023-03-02T07:06:33.085Z,56.72
2023-03-02T07:09:02.561Z,60.35
2023-03-02T07:11:32.131Z,59.88
2023-03-02T07:14:04.365Z,56.28
2023-03-02T07:16:34.381Z,54.47
2023-03-02T07:19:02.794Z,57.83
2023-03-02T07:21:31.115Z,56.83
2023-03-02T07:23:59.703Z,52.15
2023-03-02T07:26:27.890Z,59.00
2023-03-02T07:28:59.721Z,56.85
2023-03-02T07:31:30.461Z,66.57
2023-03-02T07:33:58.832Z,59.10
2023-03-02T07:36:27.350Z,61.85
2023-03-02T07:38:56.215Z,64.50
2023-03-02T07:41:24.312Z,60.35
2023-03-02T07:43:57.837Z,62.53
2023-03-02T07:46:26.264Z,66.53
2023-03-02T07:49:02.359Z,59.20
2023-03-02T07:51:30.650Z,69.85
2023-03-02T07:54:02.864Z,66.75
2023-03-02T07:58:59.619Z,61.85
2023-03-02T08:01:28.013Z,88.65
2023-03-02T08:03:57.844Z,70.32
2023-03-02T08:06:26.390Z,68.72
2023-03-02T08:08:55.012Z,68.68
2023-03-02T08:11:24.014Z,127.00
2023-03-02T08:13:52.906Z,97.88
2023-03-02T08:16:23.282Z,60.50
2023-03-02T08:18:51.948Z,73.28
2023-03-02T08:21:23.750Z,69.30
2023-03-02T08:23:52.956Z,61.28
2023-03-02T08:26:21.463Z,59.28
2023-03-02T08:29:02.688Z,58.90
2023-03-02T08:31:33.496Z,58.22
2023-03-02T08:34:03.055Z,61.50
2023-03-02T08:36:35.569Z,55.20
2023-03-02T08:39:06.528Z,59.33
2023-03-02T08:41:35.847Z,56.15
2023-03-02T08:44:05.133Z,55.08
2023-03-02T08:46:34.629Z,54.78
2023-03-02T08:49:06.731Z,47.80
2023-03-02T08:51:36.966Z,55.75
2023-03-02T08:54:05.355Z,51.15
2023-03-02T08:56:35.950Z,54.03
2023-03-02T08:59:06.623Z,50.60
2023-03-02T09:01:37.707Z,52.22
2023-03-02T09:04:08.165Z,51.13
2023-03-02T09:06:44.337Z,50.45
2023-03-02T09:09:14.099Z,48.47
2023-03-02T09:11:48.180Z,54.20
2023-03-02T09:14:17.632Z,55.72
2023-03-02T09:16:49.403Z,51.50
2023-03-02T09:19:17.654Z,59.10
2023-03-02T09:21:47.348Z,48.00
2023-03-02T09:24:16.708Z,55.53
2023-03-02T09:26:47.545Z,50.72
2023-03-02T09:29:16.726Z,48.97
2023-03-02T09:31:45.304Z,50.35
2023-03-02T09:34:13.870Z,52.80
2023-03-02T09:36:43.635Z,54.08
2023-03-02T09:39:13.579Z,46.40
2023-03-02T09:42:19.858Z,50.40
2023-03-02T09:45:07.733Z,47.50
2023-03-02T09:47:41.121Z,47.90
2023-03-02T09:50:23.172Z,51.45
2023-03-02T09:52:54.209Z,46.88
2023-03-02T09:55:26.599Z,47.80
2023-03-02T09:57:55.291Z,47.33
2023-03-02T10:00:28.448Z,47.20
2023-03-02T10:03:16.235Z,48.70
2023-03-02T10:05:46.704Z,45.25
2023-03-02T10:08:17.876Z,43.55
2023-03-02T10:10:50.842Z,44.47
2023-03-02T10:13:24.105Z,44.25
2023-03-02T10:16:09.468Z,43.22
2023-03-02T10:18:40.408Z,47.05
2023-03-02T10:21:14.073Z,45.67
2023-03-02T10:23:45.805Z,40.55
2023-03-02T10:26:24.726Z,44.38
2023-03-02T10:29:05.541Z,45.83
2023-03-02T10:31:34.620Z,41.28
2023-03-02T10:34:06.934Z,43.40
2023-03-02T10:36:39.697Z,46.90
2023-03-02T10:39:15.908Z,42.72
2023-03-02T10:41:49.510Z,43.28
2023-03-02T10:44:22.763Z,39.80
2023-03-02T10:46:51.424Z,39.65
2023-03-02T10:49:29.051Z,46.33
2023-03-02T10:52:10.920Z,45.80
2023-03-02T10:54:39.875Z,47.70
2023-03-02T10:57:33.775Z,42.92
2023-03-02T11:00:05.136Z,44.92
2023-03-02T11:02:35.918Z,48.87
2023-03-02T11:05:25.109Z,38.35
2023-03-02T11:08:02.193Z,44.67
2023-03-02T11:10:36.724Z,45.33
2023-03-02T11:13:18.298Z,42.55
2023-03-02T11:15:48.826Z,40.23
2023-03-02T11:18:29.658Z,46.20
2023-03-02T11:21:03.226Z,42.33
2023-03-02T11:23:45.634Z,44.28
2023-03-02T11:28:51.416Z,47.10
2023-03-02T11:31:28.699Z,42.55
2023-03-02T11:34:17.249Z,49.70
2023-03-02T11:36:56.029Z,44.17
2023-03-02T11:39:27.465Z,46.38
2023-03-02T11:41:56.100Z,46.67
2023-03-02T11:44:27.861Z,46.38
2023-03-02T11:47:01.737Z,47.72
2023-03-02T11:49:40.275Z,49.40
2023-03-02T11:52:18.790Z,45.47
2023-03-02T11:54:48.049Z,44.97
2023-03-02T11:57:21.846Z,43.60
2023-03-02T11:59:51.810Z,42.15
2023-03-02T12:02:20.273Z,44.38
2023-03-02T12:04:49.209Z,44.58
2023-03-02T12:07:22.879Z,43.65
2023-03-02T12:10:03.426Z,39.75
2023-03-02T12:12:46.988Z,47.40
2023-03-02T12:15:37.032Z,40.97
2023-03-02T12:18:17.587Z,46.83
2023-03-02T12:20:51.554Z,46.70
2023-03-02T12:23:24.777Z,47.70
2023-03-02T12:26:05.228Z,45.28
2023-03-02T12:28:36.714Z,44.85
2023-03-02T12:31:10.346Z,43.67
2023-03-02T12:33:48.880Z,42.25
2023-03-02T12:36:21.028Z,36.75
2023-03-02T12:38:56.613Z,43.75
2023-03-02T12:41:55.940Z,42.25
2023-03-02T12:44:34.042Z,43.80
2023-03-02T12:47:04.206Z,46.72
2023-03-02T12:49:45.907Z,45.50
2023-03-02T12:52:24.522Z,44.38
2023-03-02T12:55:01.242Z,41.47
2023-03-02T12:57:35.858Z,40.85
2023-03-02T13:00:06.832Z,40.33
2023-03-02T13:02:39.616Z,54.58
2023-03-02T13:05:10.048Z,38.63
2023-03-02T13:07:41.913Z,37.95
2023-03-02T13:10:22.161Z,44.85
2023-03-02T13:12:51.754Z,39.97
2023-03-02T13:15:20.520Z,37.30
2023-03-02T13:17:59.634Z,43.22
2023-03-02T13:20:29.940Z,38.65
2023-03-02T13:22:58.303Z,39.17
2023-03-02T13:25:28.509Z,37.67
2023-03-02T13:27:58.599Z,37.13
2023-03-02T13:30:29.041Z,39.58
2023-03-02T13:33:02.851Z,41.15
2023-03-02T13:35:32.409Z,41.30
2023-03-02T13:38:05.675Z,39.22
2023-03-02T13:40:46.328Z,39.28
2023-03-02T13:43:40.772Z,40.83
2023-03-02T13:46:28.771Z,34.97
2023-03-02T13:49:09.679Z,36.95
2023-03-02T13:51:40.914Z,31.05
2023-03-02T13:54:18.288Z,36.25
2023-03-02T13:56:47.426Z,35.13
2023-03-02T13:59:17.942Z,35.65
2023-03-02T14:01:46.489Z,33.00
2023-03-02T14:04:17.915Z,33.88
2023-03-02T14:06:49.713Z,30.98
2023-03-02T14:09:19.145Z,32.88
2023-03-02T14:11:49.197Z,28.45
2023-03-02T14:14:19.056Z,31.88
2023-03-02T14:16:47.166Z,30.52
2023-03-02T14:19:18.572Z,29.20
2023-03-02T14:21:49.165Z,32.47
2023-03-02T14:24:17.288Z,30.63
2023-03-02T14:26:49.832Z,31.23
2023-03-02T14:29:23.385Z,27.50
2023-03-02T14:31:51.908Z,31.17
2023-03-02T14:34:21.824Z,27.98
2023-03-02T14:36:52.159Z,34.30
2023-03-02T14:39:23.026Z,33.45
2023-03-02T14:41:54.195Z,36.15
2023-03-02T14:44:23.241Z,32.60
2023-03-02T14:46:53.035Z,31.40
2023-03-02T14:49:22.718Z,34.05
2023-03-02T14:51:57.543Z,35.22
2023-03-02T14:54:26.259Z,29.13
2023-03-02T14:56:54.404Z,30.00
2023-03-02T14:59:22.672Z,32.38
2023-03-02T15:01:50.785Z,30.90
2023-03-02T15:04:19.546Z,29.77
2023-03-02T15:06:50.217Z,31.40
2023-03-02T15:09:19.794Z,29.63
2023-03-02T15:11:47.812Z,33.97
2023-03-02T15:14:16.229Z,32.03
2023-03-02T15:16:44.838Z,33.75
2023-03-02T15:19:13.122Z,26.80
2023-03-02T15:21:44.780Z,30.30
2023-03-02T15:24:17.073Z,31.23
2023-03-02T15:26:45.331Z,28.77
2023-03-02T15:29:16.035Z,33.30
2023-03-02T15:31:44.460Z,31.30
2023-03-02T15:34:13.370Z,33.47
2023-03-02T15:36:42.029Z,32.60
2023-03-02T15:39:14.887Z,30.15
2023-03-02T15:41:43.154Z,33.30
2023-03-02T15:44:21.498Z,29.55
2023-03-02T15:46:51.766Z,32.83
2023-03-02T15:49:23.173Z,34.85
2023-03-02T15:51:52.125Z,31.77
2023-03-02T15:54:22.391Z,28.15
2023-03-02T15:56:53.535Z,32.15
2023-03-02T15:59:24.248Z,31.27
2023-03-02T16:01:52.904Z,30.67
2023-03-02T16:04:21.372Z,27.45
2023-03-02T16:06:50.056Z,27.83
2023-03-02T16:09:18.764Z,31.75
2023-03-02T16:11:50.659Z,31.73
2023-03-02T16:14:19.196Z,27.65
2023-03-02T16:16:47.866Z,28.10
2023-03-02T16:19:19.069Z,29.80
2023-03-02T16:21:48.065Z,26.13
2023-03-02T16:24:17.297Z,25.40
2023-03-02T16:26:46.207Z,27.52
2023-03-02T16:29:15.784Z,30.38
2023-03-02T16:31:46.988Z,28.17
2023-03-02T16:34:17.229Z,31.37
2023-03-02T16:36:49.521Z,31.75
2023-03-02T16:39:17.642Z,31.45
2023-03-02T16:41:46.947Z,31.70
2023-03-02T16:44:16.560Z,31.00
2023-03-02T16:46:45.039Z,31.60
2023-03-02T16:49:14.612Z,29.70
2023-03-02T16:51:43.618Z,30.92
2023-03-02T16:54:13.673Z,35.92
2023-03-02T16:56:45.160Z,27.45
2023-03-02T16:59:14.196Z,30.98
2023-03-02T17:01:43.756Z,36.40
2023-03-02T17:04:11.916Z,41.95
2023-03-02T17:06:41.736Z,35.85
2023-03-02T17:09:13.683Z,37.50
2023-03-02T17:11:42.249Z,35.53
2023-03-02T17:14:11.316Z,35.80
2023-03-02T17:16:41.557Z,37.33
2023-03-02T17:19:11.397Z,40.03
2023-03-02T17:21:40.062Z,37.65
2023-03-02T17:24:09.782Z,35.60
2023-03-02T17:26:38.595Z,44.00
2023-03-02T17:29:08.057Z,38.15
2023-03-02T17:31:36.762Z,43.63
2023-03-02T17:34:05.436Z,47.97
2023-03-02T17:36:36.845Z,45.95
2023-03-02T17:39:07.140Z,48.40
2023-03-02T17:41:36.699Z,47.67
2023-03-02T17:44:05.556Z,49.35
2023-03-02T17:46:34.438Z,49.97
2023-03-02T17:49:02.561Z,49.85
2023-03-02T17:51:31.465Z,46.60
2023-03-02T17:54:04.662Z,47.72
2023-03-02T17:56:33.280Z,45.58
2023-03-02T17:59:04.190Z,50.10
2023-03-02T18:01:33.689Z,46.38
2023-03-02T18:04:01.849Z,45.63
2023-03-02T18:06:30.612Z,48.90
2023-03-02T18:08:58.748Z,85.50
2023-03-02T18:11:31.473Z,40.10
2023-03-02T18:14:00.149Z,44.15
2023-03-02T18:16:30.046Z,41.35
2023-03-02T18:18:58.394Z,40.63
2023-03-02T18:21:29.576Z,43.15
2023-03-02T18:23:58.533Z,51.10
2023-03-02T18:26:28.133Z,46.28
2023-03-02T18:28:56.463Z,38.72
2023-03-02T18:31:24.574Z,43.60
2023-03-02T18:33:52.936Z,59.63
2023-03-02T18:36:22.157Z,52.60
2023-03-02T18:38:53.455Z,58.17
2023-03-02T18:41:22.857Z,71.53
2023-03-02T18:43:53.547Z,55.88
2023-03-02T18:46:22.828Z,51.15
2023-03-02T18:48:52.829Z,45.83
2023-03-02T18:51:23.062Z,45.28
2023-03-02T18:53:51.987Z,51.53
2023-03-02T18:56:20.497Z,55.75
2023-03-02T18:58:50.421Z,54.20
2023-03-02T19:01:21.302Z,59.17
2023-03-02T19:03:50.394Z,69.13
2023-03-02T19:06:20.670Z,79.43
2023-03-02T19:08:49.516Z,50.83
2023-03-02T19:11:18.142Z,47.65
2023-03-02T19:13:46.824Z,53.95
2023-03-02T19:16:16.740Z,55.60
2023-03-02T19:18:48.752Z,54.65
2023-03-02T19:21:17.724Z,55.47
2023-03-02T19:23:46.630Z,54.05
2023-03-02T19:26:15.310Z,57.13
2023-03-02T19:28:43.633Z,48.10
2023-03-02T19:31:15.307Z,59.17
2023-03-02T19:33:46.211Z,56.45
2023-03-02T19:36:15.618Z,54.08
2023-03-02T19:38:44.563Z,49.67
2023-03-02T19:41:14.441Z,50.67
2023-03-02T19:43:46.826Z,46.63
2023-03-02T19:46:23.618Z,49.45
2023-03-02T19:48:52.059Z,44.75
2023-03-02T19:51:21.752Z,58.53
2023-03-02T19:53:53.611Z,82.68
2023-03-02T19:56:26.990Z,72.97
2023-03-02T19:58:55.685Z,96.57
2023-03-02T20:01:25.084Z,80.10
2023-03-02T20:03:54.846Z,102.88
2023-03-02T20:06:26.585Z,52.05
2023-03-02T20:08:54.891Z,71.70
2023-03-02T20:11:25.142Z,62.25
2023-03-02T20:13:55.073Z,90.80
2023-03-02T20:16:23.534Z,60.42
2023-03-02T20:18:57.459Z,69.43
2023-03-02T20:21:27.201Z,48.72
2023-03-02T20:23:58.496Z,74.55
2023-03-02T20:26:29.873Z,55.50
2023-03-02T20:29:03.714Z,57.65
2023-03-02T20:31:35.419Z,59.25
2023-03-02T20:34:06.534Z,73.38
2023-03-02T20:36:40.908Z,58.47
2023-03-02T20:39:20.378Z,66.68
2023-03-02T20:41:50.025Z,44.58
2023-03-02T20:44:18.180Z,80.05
2023-03-02T20:46:51.521Z,81.75
2023-03-02T20:49:20.414Z,62.55
2023-03-02T20:51:56.408Z,47.80
2023-03-02T20:54:26.916Z,51.33
2023-03-02T20:56:55.359Z,58.47
2023-03-02T20:59:23.725Z,49.17
2023-03-02T21:01:52.558Z,56.72
2023-03-02T21:04:21.065Z,51.13
2023-03-02T21:06:52.958Z,97.60
2023-03-02T21:09:23.802Z,79.85
2023-03-02T21:11:51.944Z,55.88
2023-03-02T21:14:22.107Z,79.95
2023-03-02T21:16:50.984Z,81.00
2023-03-02T21:19:19.805Z,81.45
2023-03-02T21:21:48.344Z,62.28
2023-03-02T21:24:18.022Z,86.78
2023-03-02T21:26:46.847Z,54.35
2023-03-02T21:29:16.148Z,54.33
2023-03-02T21:31:44.756Z,55.03
2023-03-02T21:34:14.786Z,63.22
2023-03-02T21:36:44.332Z,81.80
2023-03-02T21:39:17.830Z,64.05
2023-03-02T21:41:47.949Z,61.22
2023-03-02T21:44:17.150Z,60.08
2023-03-02T21:46:46.509Z,56.13
2023-03-02T21:49:16.978Z,66.43
2023-03-02T21:51:45.291Z,53.40
2023-03-02T21:54:16.206Z,69.57
2023-03-02T21:56:44.832Z,71.53
2023-03-02T21:59:16.588Z,55.15
2023-03-02T22:01:45.145Z,68.55
2023-03-02T22:04:18.384Z,65.32
2023-03-02T22:06:50.732Z,58.40
2023-03-02T22:09:20.136Z,63.33
2023-03-02T22:11:51.444Z,67.03
2023-03-02T22:14:21.390Z,63.85
2023-03-02T22:16:49.428Z,64.75
2023-03-02T22:19:29.822Z,66.20
2023-03-02T22:22:00.311Z,84.53
2023-03-02T22:24:32.048Z,72.45
2023-03-02T22:27:01.447Z,72.63
2023-03-02T22:29:34.590Z,69.43
2023-03-02T22:32:16.377Z,68.90
2023-03-02T22:34:46.029Z,67.90
2023-03-02T22:37:17.749Z,84.05
2023-03-02T22:39:48.144Z,96.32
2023-03-02T22:42:18.365Z,63.72
2023-03-02T22:44:49.073Z,59.35
2023-03-02T22:47:20.796Z,67.53
2023-03-02T22:49:52.189Z,76.88
2023-03-02T22:52:25.196Z,91.15
2023-03-02T22:54:55.634Z,71.75
2023-03-02T22:57:31.512Z,65.07
2023-03-02T23:00:31.965Z,64.90
2023-03-02T23:03:00.952Z,67.38
2023-03-02T23:05:33.415Z,74.15
2023-03-02T23:08:18.142Z,66.15
2023-03-02T23:10:49.099Z,77.60
2023-03-02T23:13:19.964Z,65.82
2023-03-02T23:15:50.583Z,68.13
2023-03-02T23:20:54.900Z,86.95
2023-03-02T23:23:26.970Z,132.63
2023-03-02T23:28:25.036Z,72.22
2023-03-02T23:30:54.464Z,116.45
2023-03-02T23:33:22.653Z,80.40
2023-03-02T23:35:52.137Z,74.05
2023-03-02T23:38:22.051Z,84.97
2023-03-02T23:40:55.547Z,107.07
2023-03-02T23:43:24.146Z,63.42
2023-03-02T23:45:52.854Z,80.30
2023-03-02T23:48:22.779Z,70.65
2023-03-02T23:50:51.322Z,118.65
2023-03-02T23:53:20.614Z,78.43
2023-03-02T23:55:51.780Z,76.53
2023-03-02T23:58:22.368Z,54.45
